BAW461B LEMD-EGLL
Flight info
| Callsign | BAW461B |
|---|---|
| Flight time | N/A |
| Altitude | 34000 |
| Route | SIE N858 DGO N867 NENEM DCT DIDIG UP87 ROXOG |
| Aircraft | B772/H-SDE1E3FGHIJ3J4J5J6M1M2P2RWXYZ/LB1D1 |
Departure
| Time | 2026-04-30 14:14 |
|---|---|
| Airport | Adolfo Suárez Madrid–Barajas Airport (LEMD) |
Arrival
| Time | N/A |
|---|---|
| Airport | London Heathrow Airport (EGLL) |
| Time | Latitude | Longitude | Altitude | Speed | Heading |
|---|---|---|---|---|---|
| 2026-04-30 13:57 | 40.49356 | -3.56868 | 1977 ft | 0 kts | 90° |
| 2026-04-30 14:07 | 40.49356 | -3.56875 | 1977 ft | 4 kts | 90° |
| 2026-04-30 14:07 | 40.49357 | -3.56911 | 1979 ft | 4 kts | 96° |
| 2026-04-30 14:08 | 40.49358 | -3.56922 | 1977 ft | 0 kts | 98° |
| 2026-04-30 14:08 | 40.49361 | -3.56950 | 1977 ft | 4 kts | 105° |
| 2026-04-30 14:09 | 40.49371 | -3.56983 | 1978 ft | 4 kts | 124° |
| 2026-04-30 14:09 | 40.49387 | -3.57002 | 1983 ft | 2 kts | 178° |
| 2026-04-30 14:09 | 40.49389 | -3.57002 | 1979 ft | 0 kts | 180° |
| 2026-04-30 14:11 | 40.49382 | -3.57002 | 1979 ft | 3 kts | 180° |
| 2026-04-30 14:11 | 40.49348 | -3.57002 | 1982 ft | 7 kts | 180° |
| 2026-04-30 14:11 | 40.49301 | -3.57025 | 1982 ft | 8 kts | 225° |
| 2026-04-30 14:12 | 40.49289 | -3.57093 | 1984 ft | 9 kts | 268° |
| 2026-04-30 14:12 | 40.49284 | -3.57188 | 1987 ft | 12 kts | 254° |
| 2026-04-30 14:12 | 40.49212 | -3.57230 | 1990 ft | 12 kts | 189° |
| 2026-04-30 14:12 | 40.49181 | -3.57285 | 1989 ft | 12 kts | 272° |
| 2026-04-30 14:13 | 40.49181 | -3.57329 | 1988 ft | 0 kts | 269° |
| 2026-04-30 14:13 | 40.49181 | -3.57354 | 1989 ft | 6 kts | 269° |
| 2026-04-30 14:13 | 40.49193 | -3.57442 | 1989 ft | 12 kts | 315° |
| 2026-04-30 14:13 | 40.49276 | -3.57451 | 1988 ft | 15 kts | 360° |
| 2026-04-30 14:14 | 40.49624 | -3.57454 | 1989 ft | 89 kts | 359° |
| 2026-04-30 14:14 | 40.50498 | -3.57457 | 2007 ft | 157 kts | 1° |
| 2026-04-30 14:14 | 40.51645 | -3.57460 | 2495 ft | 178 kts | 1° |
| 2026-04-30 14:14 | 40.52951 | -3.57417 | 3210 ft | 191 kts | 0° |
| 2026-04-30 14:15 | 40.54300 | -3.57501 | 3967 ft | 199 kts | 356° |
| 2026-04-30 14:15 | 40.55736 | -3.57799 | 4207 ft | 221 kts | 333° |
| 2026-04-30 14:15 | 40.56846 | -3.59196 | 4708 ft | 226 kts | 294° |
| 2026-04-30 14:15 | 40.57514 | -3.61054 | 5281 ft | 228 kts | 307° |
| 2026-04-30 14:16 | 40.58764 | -3.62363 | 5845 ft | 231 kts | 327° |
| 2026-04-30 14:16 | 40.60096 | -3.63604 | 6464 ft | 236 kts | 321° |
| 2026-04-30 14:16 | 40.61363 | -3.64957 | 7230 ft | 235 kts | 319° |
| 2026-04-30 14:16 | 40.62634 | -3.66335 | 7910 ft | 237 kts | 318° |
| 2026-04-30 14:17 | 40.63985 | -3.67566 | 8493 ft | 241 kts | 338° |
| 2026-04-30 14:17 | 40.65700 | -3.67786 | 8773 ft | 260 kts | 4° |
| 2026-04-30 14:17 | 40.67573 | -3.67492 | 9000 ft | 282 kts | 5° |
| 2026-04-30 14:17 | 40.69559 | -3.67181 | 9550 ft | 292 kts | 5° |
| 2026-04-30 14:18 | 40.71606 | -3.66863 | 10204 ft | 299 kts | 5° |
| 2026-04-30 14:18 | 40.73733 | -3.66539 | 10535 ft | 319 kts | 5° |
| 2026-04-30 14:18 | 40.78373 | -3.65846 | 11601 ft | 349 kts | 5° |
| 2026-04-30 14:19 | 40.83277 | -3.65126 | 13634 ft | 359 kts | 5° |
| 2026-04-30 14:19 | 40.85782 | -3.64762 | 14632 ft | 365 kts | 5° |
| 2026-04-30 14:19 | 40.88322 | -3.64394 | 15584 ft | 370 kts | 5° |
| 2026-04-30 14:20 | 40.90904 | -3.64022 | 16515 ft | 376 kts | 5° |
| 2026-04-30 14:20 | 40.93526 | -3.63643 | 17475 ft | 381 kts | 5° |
| 2026-04-30 14:20 | 40.98877 | -3.62870 | 19209 ft | 393 kts | 5° |
| 2026-04-30 14:21 | 41.01575 | -3.62479 | 20043 ft | 397 kts | 5° |
| 2026-04-30 14:21 | 41.04344 | -3.62077 | 20900 ft | 402 kts | 4° |
| 2026-04-30 14:21 | 41.09982 | -3.61260 | 22621 ft | 412 kts | 4° |
| 2026-04-30 14:22 | 41.12850 | -3.60843 | 23489 ft | 416 kts | 4° |
| 2026-04-30 14:22 | 41.18538 | -3.59051 | 24787 ft | 431 kts | 21° |
| 2026-04-30 14:22 | 41.21297 | -3.57452 | 25432 ft | 436 kts | 22° |
| 2026-04-30 14:23 | 41.26870 | -3.54194 | 26781 ft | 445 kts | 21° |
| 2026-04-30 14:23 | 41.32645 | -3.50960 | 28024 ft | 454 kts | 20° |
| 2026-04-30 14:24 | 41.38552 | -3.47720 | 29187 ft | 464 kts | 20° |
| 2026-04-30 14:24 | 41.41554 | -3.46074 | 29728 ft | 469 kts | 20° |
| 2026-04-30 14:25 | 41.47647 | -3.42721 | 30667 ft | 478 kts | 20° |
| 2026-04-30 14:25 | 41.53832 | -3.39312 | 31595 ft | 483 kts | 19° |
| 2026-04-30 14:26 | 41.60082 | -3.35866 | 32474 ft | 488 kts | 19° |
| 2026-04-30 14:26 | 41.63234 | -3.34125 | 32870 ft | 491 kts | 19° |
| 2026-04-30 14:26 | 41.69555 | -3.30627 | 33639 ft | 497 kts | 19° |
| 2026-04-30 14:27 | 41.72758 | -3.28851 | 33968 ft | 500 kts | 19° |
| 2026-04-30 14:27 | 41.79247 | -3.25248 | 34059 ft | 505 kts | 19° |
| 2026-04-30 14:28 | 41.88899 | -3.19868 | 34073 ft | 500 kts | 19° |
| 2026-04-30 14:28 | 41.95341 | -3.16273 | 34087 ft | 502 kts | 19° |
| 2026-04-30 14:29 | 42.07178 | -3.09642 | 34069 ft | 503 kts | 19° |
| 2026-04-30 14:31 | 42.24364 | -2.99966 | 34063 ft | 502 kts | 19° |
| 2026-04-30 14:31 | 42.34024 | -2.94502 | 34053 ft | 501 kts | 18° |
| 2026-04-30 14:32 | 42.43755 | -2.89442 | 34039 ft | 495 kts | 8° |
| 2026-04-30 14:33 | 42.50499 | -2.88238 | 34048 ft | 485 kts | 355° |
| 2026-04-30 14:33 | 42.60557 | -2.88802 | 34057 ft | 482 kts | 352° |
| 2026-04-30 14:34 | 42.67224 | -2.89209 | 34046 ft | 482 kts | 352° |
| 2026-04-30 14:34 | 42.73931 | -2.89569 | 34051 ft | 482 kts | 353° |
| 2026-04-30 14:35 | 42.84002 | -2.90084 | 34049 ft | 482 kts | 353° |
| 2026-04-30 14:35 | 42.87313 | -2.90251 | 34034 ft | 470 kts | 353° |
| 2026-04-30 14:36 | 42.90550 | -2.90412 | 34033 ft | 462 kts | 352° |
| 2026-04-30 14:36 | 42.96995 | -2.90748 | 34051 ft | 462 kts | 352° |
| 2026-04-30 14:37 | 43.03400 | -2.91085 | 34082 ft | 458 kts | 352° |
| 2026-04-30 14:37 | 43.09706 | -2.91416 | 34087 ft | 456 kts | 352° |
| 2026-04-30 14:38 | 43.16042 | -2.91748 | 34102 ft | 455 kts | 352° |
| 2026-04-30 14:38 | 43.22380 | -2.92079 | 34100 ft | 455 kts | 352° |
| 2026-04-30 14:39 | 43.28692 | -2.92423 | 34110 ft | 453 kts | 351° |
| 2026-04-30 14:39 | 43.33839 | -2.93440 | 34101 ft | 446 kts | 342° |
| 2026-04-30 14:40 | 43.42899 | -2.96367 | 34112 ft | 446 kts | 341° |
| 2026-04-30 14:40 | 43.48945 | -2.98289 | 34100 ft | 446 kts | 342° |
| 2026-04-30 14:41 | 43.55001 | -3.00188 | 34089 ft | 446 kts | 342° |
| 2026-04-30 14:41 | 43.61044 | -3.02083 | 34102 ft | 445 kts | 342° |
| 2026-04-30 14:42 | 43.67085 | -3.03984 | 34087 ft | 445 kts | 342° |
| 2026-04-30 14:42 | 43.73135 | -3.05804 | 34082 ft | 445 kts | 343° |
| 2026-04-30 14:43 | 43.79200 | -3.07521 | 34100 ft | 445 kts | 343° |
| 2026-04-30 14:43 | 43.85221 | -3.09240 | 34091 ft | 444 kts | 343° |
| 2026-04-30 14:44 | 43.91271 | -3.10988 | 34090 ft | 444 kts | 343° |
| 2026-04-30 14:44 | 43.97331 | -3.12744 | 34093 ft | 444 kts | 343° |
| 2026-04-30 14:45 | 44.03437 | -3.14133 | 34095 ft | 450 kts | 354° |
| 2026-04-30 14:45 | 44.09707 | -3.13172 | 34095 ft | 460 kts | 11° |
| 2026-04-30 14:46 | 44.15841 | -3.10509 | 34106 ft | 462 kts | 13° |
| 2026-04-30 14:46 | 44.21923 | -3.07751 | 34108 ft | 462 kts | 13° |
| 2026-04-30 14:47 | 44.28056 | -3.05016 | 34093 ft | 462 kts | 13° |
| 2026-04-30 14:47 | 44.34183 | -3.02321 | 34094 ft | 461 kts | 13° |
| 2026-04-30 14:48 | 44.40303 | -2.99639 | 34107 ft | 460 kts | 13° |
| 2026-04-30 14:48 | 44.46408 | -2.96959 | 34094 ft | 459 kts | 13° |
| 2026-04-30 14:49 | 44.52506 | -2.94273 | 34096 ft | 458 kts | 13° |
| 2026-04-30 14:49 | 44.58588 | -2.91587 | 34105 ft | 458 kts | 13° |
| 2026-04-30 14:50 | 44.67664 | -2.87570 | 34094 ft | 456 kts | 13° |
| 2026-04-30 14:51 | 44.76739 | -2.83538 | 34097 ft | 455 kts | 13° |
| 2026-04-30 14:52 | 44.85800 | -2.79500 | 34098 ft | 455 kts | 13° |
| 2026-04-30 14:52 | 44.94866 | -2.75447 | 34092 ft | 456 kts | 14° |
| 2026-04-30 14:53 | 45.03939 | -2.71377 | 34090 ft | 456 kts | 14° |
| 2026-04-30 14:54 | 45.16018 | -2.65936 | 34092 ft | 455 kts | 15° |
| 2026-04-30 14:55 | 45.24998 | -2.61875 | 34087 ft | 452 kts | 15° |
| 2026-04-30 14:56 | 45.36946 | -2.56453 | 34089 ft | 449 kts | 15° |
| 2026-04-30 14:57 | 45.45881 | -2.52382 | 34085 ft | 450 kts | 16° |
| 2026-04-30 14:58 | 45.57817 | -2.46922 | 34086 ft | 452 kts | 16° |
| 2026-04-30 14:58 | 45.66827 | -2.42784 | 34086 ft | 454 kts | 16° |
| 2026-04-30 15:00 | 45.81877 | -2.35841 | 34082 ft | 455 kts | 17° |
| 2026-04-30 15:01 | 45.94001 | -2.30219 | 34064 ft | 458 kts | 17° |
| 2026-04-30 15:01 | 46.03063 | -2.25999 | 34071 ft | 462 kts | 18° |
| 2026-04-30 15:02 | 46.09332 | -2.23849 | 34082 ft | 465 kts | 9° |
| 2026-04-30 15:03 | 46.25313 | -2.20100 | 34075 ft | 465 kts | 9° |
| 2026-04-30 15:04 | 46.41180 | -2.16212 | 34068 ft | 463 kts | 10° |
| 2026-04-30 15:06 | 46.57047 | -2.12295 | 34071 ft | 464 kts | 11° |
| 2026-04-30 15:07 | 46.69839 | -2.09121 | 34069 ft | 467 kts | 11° |
| 2026-04-30 15:08 | 46.82624 | -2.05934 | 34067 ft | 467 kts | 11° |
| 2026-04-30 15:09 | 46.98623 | -2.01924 | 34064 ft | 465 kts | 12° |
| 2026-04-30 15:10 | 47.11322 | -1.98770 | 34065 ft | 464 kts | 12° |
| 2026-04-30 15:11 | 47.30388 | -1.94030 | 34082 ft | 462 kts | 11° |
| 2026-04-30 15:12 | 47.40024 | -1.93290 | 34068 ft | 465 kts | 356° |
| 2026-04-30 15:13 | 47.46465 | -1.94077 | 34066 ft | 464 kts | 356° |
| 2026-04-30 15:14 | 47.68893 | -1.93773 | 34066 ft | 462 kts | 19° |
| 2026-04-30 15:17 | 47.96333 | -1.79632 | 34057 ft | 467 kts | 20° |
| 2026-04-30 15:18 | 48.12089 | -1.74116 | 34045 ft | 469 kts | 1° |
| 2026-04-30 15:19 | 48.21874 | -1.74300 | 34057 ft | 468 kts | 359° |